Elsmere, Delaware
Current Conditions -  °F | °C
As of 8:51 PM on Thursday 18 Dec 2014 (Local Time) from KILG Reporting Station
Overcast Overcast  
Wind Chill: 29°   Ceiling: 3100
Heat Index: 37°   Visibility: 10mi
Dew Point: 25°   Wind: 13mph
Humidity: 62%   Direction: 300°WNW
Pressure: 30.09"   Gusts: NA
Location:  39.7454°N, 75.5936°W
Report Text: KILG 190151Z AUTO 30011KT 10SM OVC031 03/M04 A3009 RMK AO2 SLP189 T00281039
Loading
Personal Weather Stations






























Interactive Weather Map New forecast layout! Learn more

10-Day Weather Forecast

Advertisements
Track Severe Weather on mobile